嘉手納 の空港の天気 - METARとTAF

嘉手納基地 ( RODN / DNA ) - 沖縄県沖縄市
飛行場実況気象(Metar)
観測時間02/17 22:56 JST (02/17 13:56 UTC)
風向・風速東 3m/s
視程10km以上
天気現象
全天の8割程度の雲 雲底高度 1680m
気温15.4℃
湿度84%
気圧1023.1hPa
METARRODN 171356Z AUTO 10005KT 10SM BKN055 15/13 A3019 RMK AO2 SLP231 T01540127 $
過去の天気等 Google飛行場航空写真 Wunderground天気予報

過去48時間のMETAR

飛行場予報(TAF)
発表時間: 2/17 17:00 JST (2/17 08:00 UTC)
予報対象時間: 17日17時 JST ~ 18日23時 JST
風向・風速北東 5m/s
視程10km以上
全天の8割程度の雲 雲底高度 610m
17日22時 JST ~ 17日24時 JST に徐々に
風向・風速東北東 3m/s
視程10km以上
全天の8割程度の雲 雲底高度 910m
TAF RODN 170800Z 1708/1814 04009KT 9999 BKN020 QNH3013INS
BECMG 1713/1715 07006KT 9999 BKN030 QNH3015INS TX21/1803Z TN14/1722Z
日本の空港のMETAR・TAFへのリンク

RJTT 東京国際空港
RJAA 新東京国際空港
RJBB 関西国際空港
RJOO 大阪空港
RJGG 中部国際空港
RJCC 新千歳空港
RJFF 福岡空港
ROAH 那覇空港


RJEC 旭川空港
RJCH 函館空港
RJCK 釧路空港
RJCM 女満別空港
RJCB 帯広空港
RJSA 青森空港
RJSS 仙台空港
RJSK 秋田空港
RJSF 福島空港
RJAH 茨城空港
RJSN 新潟空港
RJNT 富山空港
RJNK 小松飛行場
RJNS 静岡空港
RJOH 美保飛行場
RJOC 出雲空港
RJOB 岡山空港
RJOA 広島空港
RJOI 岩国飛行場
RJOT 高松空港
RJOM 松山空港
RJOK 高知空港
RJFR 北九州空港
RJFT 熊本空港
RJFU 長崎空港
RJFS 佐賀空港
RJFO 大分空港
RJFM 宮崎空港
RJFK 鹿児島空港
ROIG 石垣島空港
RJTY 横田飛行場
ROTM 普天間飛行場
RODN 嘉手納飛行場